createdAt,value
2023-01-19T00:01:04.221Z,96.3
2023-01-19T00:06:55.041Z,95.9
2023-01-19T00:12:46.353Z,96.8
2023-01-19T00:18:37.030Z,96.9
2023-01-19T00:24:29.422Z,95.2
2023-01-19T00:30:20.479Z,96.5
2023-01-19T00:36:10.530Z,97
2023-01-19T00:42:01.141Z,97.5
2023-01-19T00:47:56.312Z,97.3
2023-01-19T00:53:46.165Z,97.4
2023-01-19T00:59:36.422Z,97.7
2023-01-19T01:05:26.928Z,98.2
2023-01-19T01:11:18.297Z,97.8
2023-01-19T01:17:09.007Z,98.1
2023-01-19T01:23:00.344Z,98.1
2023-01-19T01:28:52.269Z,97.3
2023-01-19T01:34:43.366Z,96
2023-01-19T01:40:34.053Z,96
2023-01-19T01:46:25.241Z,96.2
2023-01-19T01:52:15.831Z,96.5
2023-01-19T01:58:06.383Z,97.1
2023-01-19T02:03:57.281Z,97.1
2023-01-19T02:09:50.740Z,95.9
2023-01-19T02:15:41.941Z,97
2023-01-19T02:21:32.271Z,96.8
2023-01-19T02:27:22.730Z,96
2023-01-19T02:33:13.814Z,96.5
2023-01-19T02:39:04.758Z,97.5
2023-01-19T02:44:55.263Z,97
2023-01-19T02:50:45.700Z,97.1
2023-01-19T02:56:36.582Z,96.8
2023-01-19T03:02:27.211Z,97.5
2023-01-19T03:08:17.963Z,97.4
2023-01-19T03:14:08.746Z,97.3
2023-01-19T03:19:59.405Z,97.2
2023-01-19T03:25:49.748Z,96.3
2023-01-19T03:31:40.625Z,96.6
2023-01-19T03:37:30.854Z,96.7
2023-01-19T03:43:21.738Z,96.5
2023-01-19T03:49:12.521Z,97.3
2023-01-19T03:55:04.638Z,97.9
2023-01-19T04:00:54.867Z,97.3
2023-01-19T04:06:45.242Z,96.8
2023-01-19T04:12:35.069Z,98.4
2023-01-19T04:18:26.802Z,99.6
2023-01-19T04:24:19.967Z,98.5
2023-01-19T04:30:11.006Z,97.6
2023-01-19T04:36:01.770Z,98.1
2023-01-19T04:41:52.210Z,97.9
2023-01-19T04:47:43.099Z,99.1
2023-01-19T04:53:33.636Z,99.5
2023-01-19T04:59:24.546Z,100
2023-01-19T05:05:15.153Z,100
2023-01-19T05:11:05.944Z,100
2023-01-19T05:16:56.892Z,100
2023-01-19T05:22:47.649Z,100
2023-01-19T05:28:38.578Z,99.8
2023-01-19T05:34:29.693Z,99.9
2023-01-19T05:40:20.518Z,99.5
2023-01-19T05:46:11.590Z,99.6
2023-01-19T05:52:02.232Z,99.9
2023-01-19T05:57:53.449Z,99.8
2023-01-19T06:03:44.759Z,99.1
2023-01-19T06:09:35.207Z,98.9
2023-01-19T06:15:26.310Z,98.5
2023-01-19T06:21:17.731Z,97.7
2023-01-19T06:27:06.501Z,98.6
2023-01-19T06:32:54.648Z,99.4
2023-01-19T06:38:46.106Z,99.3
2023-01-19T06:44:36.932Z,100
2023-01-19T06:50:29.059Z,100
2023-01-19T06:56:17.755Z,100
2023-01-19T07:02:30.004Z,100
2023-01-19T07:08:19.905Z,100
2023-01-19T07:14:10.295Z,100
2023-01-19T07:20:01.481Z,100
2023-01-19T07:25:53.186Z,100
2023-01-19T07:31:43.924Z,100
2023-01-19T07:37:39.040Z,100
2023-01-19T07:43:30.390Z,100
2023-01-19T07:49:21.957Z,100
2023-01-19T07:55:19.289Z,100
2023-01-19T08:01:09.989Z,100
2023-01-19T08:07:02.204Z,100
2023-01-19T08:12:54.859Z,100
2023-01-19T08:18:49.568Z,100
2023-01-19T08:24:40.338Z,100
2023-01-19T08:30:30.228Z,100
2023-01-19T08:36:20.706Z,100
2023-01-19T08:42:11.989Z,100
2023-01-19T08:48:02.052Z,100
2023-01-19T08:53:53.158Z,100
2023-01-19T08:59:44.916Z,100
2023-01-19T09:05:36.129Z,100
2023-01-19T09:11:27.735Z,100
2023-01-19T09:17:17.168Z,100
2023-01-19T09:23:07.503Z,100
2023-01-19T09:28:58.626Z,100
2023-01-19T09:34:50.715Z,100
2023-01-19T09:40:44.429Z,100
2023-01-19T09:46:39.197Z,100
2023-01-19T09:52:30.098Z,100
2023-01-19T09:58:21.313Z,100
2023-01-19T10:04:13.596Z,100
2023-01-19T10:10:04.508Z,100
2023-01-19T10:15:56.131Z,100
2023-01-19T10:21:47.109Z,100
2023-01-19T10:27:37.823Z,100
2023-01-19T10:33:28.581Z,100
2023-01-19T10:39:18.832Z,100
2023-01-19T10:45:10.285Z,100
2023-01-19T10:51:00.593Z,100
2023-01-19T10:56:50.961Z,100
2023-01-19T11:02:41.539Z,100
2023-01-19T11:08:32.115Z,100
2023-01-19T11:14:22.479Z,100
2023-01-19T11:20:12.601Z,100
2023-01-19T11:26:02.758Z,100
2023-01-19T11:31:53.165Z,100
2023-01-19T11:37:44.765Z,100
2023-01-19T11:43:51.378Z,100
2023-01-19T11:49:40.925Z,100
2023-01-19T11:55:31.212Z,100
2023-01-19T12:01:26.107Z,100
2023-01-19T12:07:16.272Z,100
2023-01-19T12:13:06.637Z,100
2023-01-19T12:18:55.676Z,100
2023-01-19T12:24:47.437Z,99.6
2023-01-19T12:30:37.768Z,98.4
2023-01-19T12:36:28.584Z,97.1
2023-01-19T12:42:22.504Z,96.7
2023-01-19T12:48:11.911Z,96.3
2023-01-19T12:54:02.392Z,95.2
2023-01-19T12:59:55.581Z,94.4
2023-01-19T13:05:45.801Z,92
2023-01-19T13:11:36.395Z,91.8
2023-01-19T13:17:28.103Z,92.4
2023-01-19T13:23:20.736Z,91.9
2023-01-19T13:29:11.600Z,89.9
2023-01-19T13:35:02.463Z,92
2023-01-19T13:40:54.871Z,91.7
2023-01-19T13:46:44.899Z,91.5
2023-01-19T13:52:35.180Z,90.6
2023-01-19T13:58:25.375Z,90.3
2023-01-19T14:04:15.747Z,90.7
2023-01-19T14:10:09.473Z,90.4
2023-01-19T14:15:59.155Z,90.7
2023-01-19T14:21:49.688Z,90.6
2023-01-19T14:27:39.706Z,89.8
2023-01-19T14:33:30.792Z,89.9
2023-01-19T14:39:21.146Z,89.2
2023-01-19T14:45:12.238Z,88.9
2023-01-19T14:51:05.488Z,89.2
2023-01-19T14:56:56.253Z,89.5
2023-01-19T15:02:46.198Z,89
2023-01-19T15:08:36.795Z,89.7
2023-01-19T15:14:27.515Z,89.2
2023-01-19T15:20:19.066Z,90.4
2023-01-19T15:26:12.134Z,90
2023-01-19T15:32:02.373Z,89.8
2023-01-19T15:37:52.371Z,90.3
2023-01-19T15:43:43.018Z,89.5
2023-01-19T15:49:34.375Z,90.2
2023-01-19T15:55:25.904Z,90.2
2023-01-19T16:01:16.913Z,90
2023-01-19T16:07:07.296Z,90.1
2023-01-19T16:12:58.849Z,90.6
2023-01-19T16:18:48.236Z,90.6
2023-01-19T16:24:39.097Z,90.4
2023-01-19T16:30:29.368Z,91
2023-01-19T16:36:21.010Z,89.5
2023-01-19T16:42:11.390Z,89.1
2023-01-19T16:48:02.080Z,88.7
2023-01-19T16:53:53.778Z,88.5
2023-01-19T16:59:44.233Z,88
2023-01-19T17:05:34.722Z,87.9
2023-01-19T17:11:24.652Z,88.3
2023-01-19T17:17:15.146Z,87.8
2023-01-19T17:23:06.389Z,87.5
2023-01-19T17:28:56.488Z,88
2023-01-19T17:34:47.115Z,87.3
2023-01-19T17:40:37.437Z,87.9
2023-01-19T17:46:29.377Z,87.7
2023-01-19T17:52:21.060Z,87.3
2023-01-19T17:58:12.191Z,87.1
2023-01-19T18:04:03.548Z,87.1
2023-01-19T18:09:54.738Z,87.6
2023-01-19T18:15:50.641Z,87.9
2023-01-19T18:21:40.929Z,87.9
2023-01-19T18:27:31.713Z,87.7
2023-01-19T18:33:22.601Z,87.8
2023-01-19T18:39:12.765Z,89
2023-01-19T18:45:03.622Z,88.7
2023-01-19T18:50:53.910Z,90
2023-01-19T18:56:43.748Z,90.6
2023-01-19T19:02:33.100Z,90.1
2023-01-19T19:08:23.955Z,92
2023-01-19T19:14:13.832Z,92.5
2023-01-19T19:20:04.141Z,91.8
2023-01-19T19:25:54.480Z,91.1
2023-01-19T19:31:44.577Z,91.9
2023-01-19T19:37:34.252Z,92.9
2023-01-19T19:43:25.117Z,93.5
2023-01-19T19:49:15.707Z,93.5
2023-01-19T19:55:08.501Z,93.9
2023-01-19T20:00:59.328Z,93.9
2023-01-19T20:06:49.514Z,93.8
2023-01-19T20:12:39.905Z,94.9
2023-01-19T20:18:31.533Z,93.8
2023-01-19T20:24:21.504Z,94.8
2023-01-19T20:30:14.276Z,94.5
2023-01-19T20:36:04.647Z,95.3
2023-01-19T20:41:54.918Z,95.3
2023-01-19T20:47:45.059Z,95.7
2023-01-19T20:53:35.067Z,96.2
2023-01-19T20:59:27.137Z,96.2
2023-01-19T21:05:17.346Z,96.5
2023-01-19T21:11:08.597Z,98
2023-01-19T21:16:59.153Z,97.1
2023-01-19T21:22:49.435Z,95.8
2023-01-19T21:28:39.669Z,96.6
2023-01-19T21:34:29.456Z,98.1
2023-01-19T21:40:21.518Z,96.1
2023-01-19T21:46:13.623Z,96.5
2023-01-19T21:52:04.559Z,95.4
2023-01-19T21:57:54.791Z,96.5
2023-01-19T22:03:44.693Z,96
2023-01-19T22:09:34.105Z,97.6
2023-01-19T22:15:25.300Z,98
2023-01-19T22:21:15.125Z,98.9
2023-01-19T22:27:04.770Z,97.8
2023-01-19T22:32:56.594Z,98.1
2023-01-19T22:38:46.405Z,99.6
2023-01-19T22:44:36.458Z,99.1
2023-01-19T22:50:26.802Z,98.5
2023-01-19T22:56:16.903Z,98.3
2023-01-19T23:02:09.228Z,98.3
2023-01-19T23:08:00.205Z,99.9
2023-01-19T23:13:51.473Z,99.5
2023-01-19T23:19:41.937Z,98.9
2023-01-19T23:25:31.629Z,100
2023-01-19T23:31:22.063Z,100
2023-01-19T23:37:13.189Z,100
2023-01-19T23:43:05.285Z,100
2023-01-19T23:48:56.313Z,100
2023-01-19T23:54:46.630Z,100
